Time;durP1;ratioP1;P1;durP2;ratioP2;P2;SDS_P1;SDS_P2;PMS_P1;PMS_P2;Temp;Humidity;BMP_temperature;BMP_pressure;BME280_temperature;BME280_humidity;BME280_pressure;Samples;Min_cycle;Max_cycle;Signal;HPM_P1;HPM_P2
2024/05/02 00:00:26;;;;;;;11.67;9.43;;;15.80;99.90;;;;;;5406530;26;20254;-76
2024/05/02 00:02:51;;;;;;;9.37;8.47;;;15.80;99.90;;;;;;5406353;26;20217;-76
2024/05/02 00:05:17;;;;;;;10.13;8.70;;;15.80;99.90;;;;;;5406830;26;20225;-76
2024/05/02 00:07:43;;;;;;;11.63;10.00;;;15.70;99.90;;;;;;5374870;26;20750;-76
2024/05/02 00:10:08;;;;;;;10.67;9.53;;;15.70;99.90;;;;;;5406423;26;20240;-76
2024/05/02 00:12:34;;;;;;;10.63;9.53;;;15.70;99.90;;;;;;5406181;26;20251;-76
2024/05/02 00:14:59;;;;;;;14.47;10.33;;;15.70;99.90;;;;;;5406508;26;20333;-76
2024/05/02 00:17:25;;;;;;;10.93;9.77;;;15.60;99.90;;;;;;5406334;26;20208;-76
2024/05/02 00:19:51;;;;;;;10.57;9.20;;;15.60;99.90;;;;;;5406620;26;20596;-76
2024/05/02 00:22:17;;;;;;;10.87;9.87;;;15.50;99.90;;;;;;5406182;26;20212;-76
2024/05/02 00:24:44;;;;;;;11.90;9.70;;;15.50;99.90;;;;;;5405653;26;20236;-76
2024/05/02 00:27:10;;;;;;;12.77;10.27;;;15.50;99.90;;;;;;5406059;26;20588;-76
2024/05/02 00:29:36;;;;;;;15.63;10.50;;;15.50;99.90;;;;;;5406363;26;20244;-76
2024/05/02 00:32:01;;;;;;;11.40;10.17;;;15.40;99.90;;;;;;5406107;26;20212;-76
2024/05/02 00:34:27;;;;;;;12.20;10.50;;;15.40;99.90;;;;;;5406226;26;20220;-76
2024/05/02 00:36:52;;;;;;;14.90;10.30;;;15.40;99.90;;;;;;5406005;26;20224;-76
2024/05/02 00:39:18;;;;;;;14.80;10.37;;;15.40;99.90;;;;;;5405926;26;20549;-76
2024/05/02 00:41:44;;;;;;;12.03;9.57;;;15.30;99.90;;;;;;5405330;26;20275;-76
2024/05/02 00:44:09;;;;;;;12.00;10.73;;;15.30;99.90;;;;;;5405700;26;20212;-76
2024/05/02 00:46:37;;;;;;;12.00;9.60;;;15.20;99.90;;;;;;5405824;26;20608;-76
2024/05/02 00:49:03;;;;;;;12.10;9.87;;;15.20;99.90;;;;;;5405854;26;20358;-76
2024/05/02 00:51:29;;;;;;;14.50;9.77;;;15.20;99.90;;;;;;5405541;26;20224;-76
2024/05/02 00:53:55;;;;;;;12.73;10.80;;;15.10;99.90;;;;;;5374271;26;20220;-76
2024/05/02 00:56:21;;;;;;;11.63;10.40;;;15.10;99.90;;;;;;5405339;26;20288;-77
2024/05/02 00:58:47;;;;;;;10.97;9.73;;;15.10;99.90;;;;;;5405772;26;20289;-76
2024/05/02 01:01:13;;;;;;;13.37;10.63;;;15.10;99.90;;;;;;5405384;26;20266;-76
2024/05/02 01:03:38;;;;;;;10.63;9.60;;;15.10;99.90;;;;;;5405657;26;20208;-76
2024/05/02 01:06:04;;;;;;;11.27;10.03;;;15.00;99.90;;;;;;5405685;26;20216;-76
2024/05/02 01:08:29;;;;;;;13.87;10.23;;;15.00;99.90;;;;;;5405459;26;20243;-76
2024/05/02 01:10:55;;;;;;;12.60;9.90;;;14.90;99.90;;;;;;5405053;26;20229;-77
2024/05/02 01:13:21;;;;;;;12.60;9.80;;;14.90;99.90;;;;;;5405091;26;20549;-76
2024/05/02 01:15:46;;;;;;;11.30;10.03;;;14.90;99.90;;;;;;5404980;26;20267;-76
2024/05/02 01:18:12;;;;;;;15.40;10.93;;;14.80;99.90;;;;;;5405347;26;20217;-76
2024/05/02 01:20:38;;;;;;;13.53;10.90;;;14.80;99.90;;;;;;5405099;26;20228;-76
2024/05/02 01:23:03;;;;;;;14.80;10.37;;;14.70;99.90;;;;;;5405361;26;20256;-76
2024/05/02 01:25:29;;;;;;;13.27;11.10;;;14.70;99.90;;;;;;5405211;26;20225;-76
2024/05/02 01:27:55;;;;;;;11.63;10.43;;;14.70;99.90;;;;;;5404602;26;20212;-76
2024/05/02 01:30:20;;;;;;;12.87;11.27;;;14.70;99.90;;;;;;5405138;26;20251;-76
2024/05/02 01:32:47;;;;;;;13.90;10.67;;;14.70;99.90;;;;;;5404628;26;20569;-76
2024/05/02 01:35:13;;;;;;;14.20;11.17;;;14.70;99.90;;;;;;5405016;26;20569;-76
2024/05/02 01:37:42;;;;;;;12.93;11.33;;;14.70;99.90;;;;;;5405127;26;20259;-75
2024/05/02 01:40:09;;;;;;;11.97;10.83;;;14.60;99.90;;;;;;5404935;26;20282;-75
2024/05/02 01:42:34;;;;;;;14.30;11.97;;;14.60;99.90;;;;;;5404672;26;20589;-75
2024/05/02 01:45:00;;;;;;;13.67;11.53;;;14.50;99.90;;;;;;5405323;26;20236;-75
2024/05/02 01:47:25;;;;;;;13.40;12.03;;;14.50;99.90;;;;;;5405119;26;20208;-74
2024/05/02 01:49:51;;;;;;;15.17;12.17;;;14.50;99.90;;;;;;5404729;26;20204;-74
2024/05/02 01:52:16;;;;;;;15.43;11.67;;;14.50;99.90;;;;;;5405192;26;20220;-74
2024/05/02 01:54:42;;;;;;;14.13;12.10;;;14.40;99.90;;;;;;5404848;26;20225;-74
2024/05/02 01:57:08;;;;;;;14.47;11.73;;;14.40;99.90;;;;;;5405233;26;20229;-74
2024/05/02 01:59:33;;;;;;;15.67;11.57;;;14.40;99.90;;;;;;5404652;26;20715;-74
2024/05/02 02:01:59;;;;;;;13.93;11.80;;;14.40;99.90;;;;;;5405127;26;20267;-74
2024/05/02 02:04:24;;;;;;;15.87;11.80;;;14.30;99.90;;;;;;5405240;26;20713;-74
2024/05/02 02:06:50;;;;;;;14.60;11.27;;;14.30;99.90;;;;;;5405121;26;20263;-74
2024/05/02 02:09:15;;;;;;;14.77;12.13;;;14.30;99.90;;;;;;5404824;26;20228;-74
2024/05/02 02:11:41;;;;;;;14.33;11.83;;;14.30;99.90;;;;;;5404606;26;20560;-74
2024/05/02 02:14:07;;;;;;;14.40;12.37;;;14.30;99.90;;;;;;5404530;26;20247;-74
2024/05/02 02:16:32;;;;;;;12.70;11.40;;;14.20;99.90;;;;;;5404933;26;20619;-75
2024/05/02 02:18:58;;;;;;;13.90;11.27;;;14.20;99.90;;;;;;5404930;26;20243;-74
2024/05/02 02:21:23;;;;;;;14.93;11.50;;;14.20;99.90;;;;;;5404326;26;20208;-75
2024/05/02 02:23:49;;;;;;;16.20;11.60;;;14.20;99.90;;;;;;5404652;26;20282;-74
2024/05/02 02:26:14;;;;;;;13.90;11.23;;;14.20;99.90;;;;;;5404667;26;20266;-74
2024/05/02 02:28:40;;;;;;;14.50;11.47;;;14.20;99.90;;;;;;5404538;26;20216;-75
2024/05/02 02:31:06;;;;;;;11.97;10.70;;;14.10;99.90;;;;;;5404463;26;20220;-75
2024/05/02 02:33:32;;;;;;;13.67;11.10;;;14.10;99.90;;;;;;5403890;26;20208;-74
2024/05/02 02:35:57;;;;;;;16.70;11.90;;;14.20;99.90;;;;;;5404334;26;20601;-74
2024/05/02 02:38:23;;;;;;;12.50;11.20;;;14.20;99.90;;;;;;5404500;26;20256;-74
2024/05/02 02:40:48;;;;;;;17.67;11.37;;;14.10;99.90;;;;;;5404985;26;20596;-74
2024/05/02 02:43:14;;;;;;;16.23;11.87;;;14.10;99.90;;;;;;5407603;26;20680;-74
2024/05/02 02:45:39;;;;;;;14.77;11.40;;;14.20;99.90;;;;;;5407908;26;20229;-74
2024/05/02 02:48:05;;;;;;;13.53;11.23;;;14.20;99.90;;;;;;5408242;26;20208;-74
2024/05/02 02:50:31;;;;;;;14.30;11.00;;;14.20;99.90;;;;;;5407628;26;20213;-75
2024/05/02 02:52:57;;;;;;;16.03;10.83;;;14.20;99.90;;;;;;5407970;26;20320;-75
2024/05/02 02:55:24;;;;;;;13.73;10.90;;;14.20;99.90;;;;;;5407270;26;20828;-74
2024/05/02 02:57:49;;;;;;;14.00;11.67;;;14.10;99.90;;;;;;5407365;26;20264;-75
2024/05/02 03:00:15;;;;;;;12.87;11.23;;;14.10;99.90;;;;;;5407982;26;20632;-75
2024/05/02 03:02:40;;;;;;;12.73;11.13;;;14.00;99.90;;;;;;5407166;26;20308;-74
2024/05/02 03:05:06;;;;;;;14.00;11.40;;;13.90;99.90;;;;;;5407693;26;20228;-74
2024/05/02 03:07:32;;;;;;;13.07;11.30;;;13.90;99.90;;;;;;5407468;26;20256;-74
2024/05/02 03:09:57;;;;;;;14.43;11.57;;;13.80;99.90;;;;;;5407251;26;20336;-74
2024/05/02 03:12:23;;;;;;;14.53;11.13;;;13.90;99.90;;;;;;5407285;26;20259;-74
2024/05/02 03:14:48;;;;;;;15.13;11.97;;;13.80;99.90;;;;;;5406802;26;20228;-74
2024/05/02 03:17:14;;;;;;;13.07;11.33;;;13.70;99.90;;;;;;5407598;26;20301;-74
2024/05/02 03:19:42;;;;;;;13.47;12.07;;;13.70;99.90;;;;;;5407114;26;20934;-74
2024/05/02 03:22:08;;;;;;;13.40;11.93;;;13.70;99.90;;;;;;5407084;26;20208;-74
2024/05/02 03:24:33;;;;;;;13.23;11.83;;;13.70;99.90;;;;;;5407763;26;20229;-74
2024/05/02 03:26:59;;;;;;;16.03;11.70;;;13.70;99.90;;;;;;5407473;26;20604;-74
2024/05/02 03:29:24;;;;;;;12.90;11.70;;;13.60;99.90;;;;;;5407278;26;20313;-75
2024/05/02 03:31:50;;;;;;;12.40;11.17;;;13.60;99.90;;;;;;5406825;26;20321;-74
2024/05/02 03:34:16;;;;;;;14.60;12.13;;;13.50;99.90;;;;;;5407767;26;20257;-74
2024/05/02 03:36:41;;;;;;;15.43;11.67;;;13.50;99.90;;;;;;5407050;26;20208;-74
2024/05/02 03:39:07;;;;;;;14.53;11.07;;;13.50;99.90;;;;;;5407045;26;20224;-74
2024/05/02 03:41:32;;;;;;;12.57;11.23;;;13.40;99.90;;;;;;5407540;26;20212;-74
2024/05/02 03:43:58;;;;;;;14.50;11.63;;;13.40;99.90;;;;;;5407001;26;20309;-74
2024/05/02 03:46:24;;;;;;;15.77;12.90;;;13.30;99.90;;;;;;5406847;26;20278;-75
2024/05/02 03:48:49;;;;;;;14.87;12.40;;;13.30;99.90;;;;;;5406743;26;20288;-75
2024/05/02 03:51:15;;;;;;;15.17;13.00;;;13.30;99.90;;;;;;5406304;26;20570;-74
2024/05/02 03:53:41;;;;;;;14.97;12.53;;;13.20;99.90;;;;;;5406539;26;20316;-75
2024/05/02 03:56:07;;;;;;;15.37;13.07;;;13.20;99.90;;;;;;5406694;26;20536;-74
2024/05/02 03:58:32;;;;;;;15.93;12.30;;;13.20;99.90;;;;;;5407060;26;20263;-74
2024/05/02 04:00:58;;;;;;;19.90;12.83;;;13.20;99.90;;;;;;5406409;26;20209;-74
2024/05/02 04:03:23;;;;;;;14.80;12.43;;;13.20;99.90;;;;;;5406454;26;20224;-75
2024/05/02 04:05:49;;;;;;;14.73;13.00;;;13.20;99.90;;;;;;5406257;26;20332;-74
2024/05/02 04:08:15;;;;;;;14.60;12.97;;;13.20;99.90;;;;;;5369438;26;20256;-74
2024/05/02 04:10:40;;;;;;;18.00;12.83;;;13.20;99.90;;;;;;5371204;26;20741;-75
2024/05/02 04:13:10;;;;;;;15.10;13.43;;;13.20;99.90;;;;;;5371267;26;20225;-74
2024/05/02 04:15:35;;;;;;;16.97;13.23;;;13.20;99.90;;;;;;5370609;26;20284;-74
2024/05/02 04:18:02;;;;;;;16.13;14.13;;;13.10;99.90;;;;;;5371011;26;20317;-74
2024/05/02 04:20:28;;;;;;;14.80;13.27;;;13.20;99.90;;;;;;5370459;26;20709;-75
2024/05/02 04:22:54;;;;;;;17.17;13.57;;;13.10;99.90;;;;;;5401282;26;20294;-75
2024/05/02 04:25:19;;;;;;;14.70;12.77;;;13.00;99.90;;;;;;5405490;26;20224;-74
2024/05/02 04:27:45;;;;;;;14.63;13.13;;;13.00;99.90;;;;;;5404069;26;20220;-74
2024/05/02 04:30:10;;;;;;;15.13;13.53;;;13.10;99.90;;;;;;5405710;26;20683;-74
2024/05/02 04:32:36;;;;;;;15.10;13.33;;;13.10;99.90;;;;;;5406097;26;20239;-74
2024/05/02 04:35:02;;;;;;;15.87;12.43;;;13.20;99.90;;;;;;5406273;26;20221;-74
2024/05/02 04:37:27;;;;;;;14.13;12.03;;;13.20;99.90;;;;;;5374401;26;20292;-74
2024/05/02 04:39:53;;;;;;;14.00;12.53;;;13.30;99.90;;;;;;5374615;26;20730;-74
2024/05/02 04:42:19;;;;;;;15.87;12.80;;;13.40;99.90;;;;;;5406106;26;20263;-74
2024/05/02 04:44:44;;;;;;;15.67;13.33;;;13.50;99.90;;;;;;5405591;26;20229;-74
2024/05/02 04:47:10;;;;;;;14.73;13.20;;;13.60;99.90;;;;;;5406312;26;20209;-74
2024/05/02 04:49:35;;;;;;;21.90;14.27;;;13.70;99.90;;;;;;5405671;26;20208;-74
2024/05/02 04:52:01;;;;;;;16.83;13.83;;;13.70;99.90;;;;;;5405279;26;20275;-74
2024/05/02 04:54:27;;;;;;;17.30;13.37;;;13.80;99.90;;;;;;5405724;26;20706;-75
2024/05/02 04:56:52;;;;;;;19.80;15.07;;;13.90;99.90;;;;;;5405843;26;20259;-74
2024/05/02 04:59:18;;;;;;;16.57;14.83;;;14.10;99.90;;;;;;5406121;26;20209;-74
2024/05/02 05:01:43;;;;;;;16.30;13.87;;;14.20;99.90;;;;;;5405789;26;20309;-75
2024/05/02 05:04:09;;;;;;;14.07;12.63;;;14.30;99.90;;;;;;5404065;26;20208;-75
2024/05/02 05:06:34;;;;;;;14.93;12.97;;;14.40;99.90;;;;;;5405387;26;20224;-75
2024/05/02 05:09:01;;;;;;;16.17;13.87;;;14.50;99.90;;;;;;5405620;26;20204;-75
2024/05/02 05:11:26;;;;;;;15.47;13.87;;;14.60;99.90;;;;;;5405490;26;20321;-74
2024/05/02 05:13:52;;;;;;;19.40;14.40;;;14.60;99.90;;;;;;5405273;26;20683;-74
2024/05/02 05:16:17;;;;;;;16.47;12.20;;;14.70;99.90;;;;;;5405218;26;20263;-74
2024/05/02 05:18:43;;;;;;;15.93;11.97;;;14.80;99.90;;;;;;5405230;26;20688;-75
2024/05/02 05:21:09;;;;;;;13.87;11.30;;;14.90;99.90;;;;;;5404638;26;20336;-74
2024/05/02 05:23:34;;;;;;;16.33;12.37;;;15.10;99.90;;;;;;5405013;26;20230;-74
2024/05/02 05:26:00;;;;;;;12.97;11.23;;;15.20;99.90;;;;;;5405317;26;20236;-74
2024/05/02 05:28:25;;;;;;;15.23;11.50;;;15.30;99.90;;;;;;5405313;26;20589;-74
2024/05/02 05:30:51;;;;;;;13.43;11.90;;;15.40;99.90;;;;;;5404599;26;20619;-74
2024/05/02 05:33:17;;;;;;;12.73;10.77;;;15.60;99.90;;;;;;5404939;26;20212;-75
2024/05/02 05:35:43;;;;;;;12.27;10.97;;;15.70;99.90;;;;;;5405056;26;20221;-74
2024/05/02 05:38:09;;;;;;;14.23;10.97;;;15.80;99.90;;;;;;5411784;26;20279;-75
2024/05/02 05:40:35;;;;;;;12.67;11.30;;;15.90;99.90;;;;;;5404521;26;20695;-75
2024/05/02 05:43:01;;;;;;;17.10;11.40;;;16.00;99.90;;;;;;5404774;26;20213;-74
2024/05/02 05:45:26;;;;;;;14.97;10.20;;;16.10;99.90;;;;;;5404528;26;20228;-75
2024/05/02 05:47:52;;;;;;;12.97;9.73;;;16.30;99.90;;;;;;5404765;26;20216;-74
2024/05/02 05:50:18;;;;;;;11.00;10.00;;;16.40;99.90;;;;;;5404884;26;20209;-74
2024/05/02 05:52:43;;;;;;;13.23;10.87;;;16.60;99.90;;;;;;5401965;26;20232;-75
2024/05/02 05:55:10;;;;;;;11.97;10.00;;;16.90;99.90;;;;;;5404485;26;20228;-74
2024/05/02 05:57:35;;;;;;;12.07;9.50;;;17.10;99.90;;;;;;5404752;26;20208;-74
2024/05/02 06:00:02;;;;;;;9.70;8.80;;;17.30;99.90;;;;;;5404174;26;20856;-75
2024/05/02 06:02:27;;;;;;;11.50;8.40;;;17.60;99.90;;;;;;5373270;26;20254;-75
2024/05/02 06:04:53;;;;;;;12.40;8.10;;;17.80;99.90;;;;;;5404431;26;20732;-75
2024/05/02 06:07:24;;;;;;;10.13;8.27;;;17.90;99.90;;;;;;5373440;26;20224;-75
2024/05/02 06:09:50;;;;;;;9.15;8.23;;;18.20;99.90;;;;;;5404089;26;20228;-75
2024/05/02 06:12:15;;;;;;;9.83;8.53;;;18.50;99.90;;;;;;5404346;26;20212;-74
2024/05/02 06:14:41;;;;;;;7.47;6.78;;;18.80;99.90;;;;;;5404131;26;20236;-74
2024/05/02 06:17:07;;;;;;;8.32;6.47;;;19.20;99.90;;;;;;5404375;26;20209;-74
2024/05/02 06:19:33;;;;;;;9.23;6.50;;;19.50;99.90;;;;;;5403812;26;20320;-75
2024/05/02 06:22:01;;;;;;;9.32;5.80;;;20.00;99.90;;;;;;5403784;26;20328;-75
2024/05/02 06:24:26;;;;;;;11.05;7.72;;;20.40;99.90;;;;;;5404107;26;20228;-75
2024/05/02 06:26:52;;;;;;;8.23;7.22;;;20.80;99.90;;;;;;5404349;26;20208;-74
2024/05/02 06:29:17;;;;;;;8.80;6.90;;;21.10;99.90;;;;;;5404814;26;20699;-74
2024/05/02 06:31:43;;;;;;;9.57;7.07;;;21.30;99.90;;;;;;5403856;26;20205;-74
2024/05/02 06:34:09;;;;;;;7.88;6.55;;;21.60;99.90;;;;;;5403600;26;20254;-75
2024/05/02 06:36:42;;;;;;;7.45;6.75;;;21.80;99.90;;;;;;5403892;26;20209;-75
2024/05/02 06:39:11;;;;;;;6.85;6.07;;;22.20;99.90;;;;;;5404042;26;20325;-75
2024/05/02 06:41:37;;;;;;;6.32;5.53;;;22.40;99.90;;;;;;5403851;26;20318;-75
2024/05/02 06:44:03;;;;;;;8.25;5.20;;;22.80;99.90;;;;;;5409176;26;20265;-75
2024/05/02 06:46:28;;;;;;;6.90;5.28;;;23.10;99.90;;;;;;5403463;26;20224;-75
2024/05/02 06:48:54;;;;;;;5.82;5.32;;;23.30;99.90;;;;;;5403555;26;20270;-75
2024/05/02 06:51:22;;;;;;;6.85;5.28;;;23.50;99.90;;;;;;5403134;26;20233;-75
2024/05/02 06:53:48;;;;;;;8.77;5.65;;;23.80;99.90;;;;;;5403012;26;20279;-75
2024/05/02 06:56:14;;;;;;;5.95;5.00;;;24.10;99.90;;;;;;5403404;26;20731;-75
2024/05/02 06:58:39;;;;;;;5.93;5.28;;;24.40;99.90;;;;;;5403437;26;20212;-75
2024/05/02 07:01:05;;;;;;;8.68;4.93;;;24.60;99.90;;;;;;5403417;26;20204;-75
2024/05/02 07:03:31;;;;;;;7.35;5.22;;;24.90;99.90;;;;;;5403193;26;20263;-75
2024/05/02 07:05:56;;;;;;;5.35;4.85;;;25.20;99.90;;;;;;5403427;26;20224;-75
2024/05/02 07:08:22;;;;;;;5.35;4.85;;;25.20;99.90;;;;;;5403480;26;20228;-75
2024/05/02 07:10:48;;;;;;;7.50;4.82;;;25.30;99.90;;;;;;5403287;26;20243;-75
2024/05/02 07:13:14;;;;;;;6.25;5.25;;;25.50;99.90;;;;;;5403304;26;20206;-75
2024/05/02 07:15:40;;;;;;;8.27;4.80;;;25.60;99.90;;;;;;5402870;26;20275;-75
2024/05/02 07:18:06;;;;;;;4.13;3.72;;;25.80;99.90;;;;;;5404046;26;20321;-75
2024/05/02 07:20:32;;;;;;;4.47;3.90;;;26.20;99.90;;;;;;5402820;26;20772;-75
2024/05/02 07:23:06;;;;;;;5.63;4.00;;;26.40;99.90;;;;;;5402708;26;20321;-75
2024/05/02 07:25:32;;;;;;;5.55;3.72;;;26.40;99.90;;;;;;5402924;26;20251;-75
2024/05/02 07:27:57;;;;;;;7.93;3.95;;;26.50;99.90;;;;;;5405558;26;20220;-74
2024/05/02 07:30:23;;;;;;;5.43;3.78;;;26.60;99.90;;;;;;5406226;26;20267;-75
2024/05/02 07:32:48;;;;;;;7.47;3.72;;;26.60;99.90;;;;;;5406196;26;20220;-75
2024/05/02 07:35:14;;;;;;;4.13;3.72;;;26.70;99.90;;;;;;5406453;26;20566;-75
2024/05/02 07:37:40;;;;;;;6.47;4.10;;;26.90;99.90;;;;;;5406476;26;20220;-75
2024/05/02 07:40:06;;;;;;;6.13;3.63;;;27.00;99.90;;;;;;5406270;26;20267;-75
2024/05/02 07:42:31;;;;;;;5.57;3.85;;;26.90;99.90;;;;;;5406457;26;20344;-75
2024/05/02 07:44:58;;;;;;;3.83;3.53;;;26.80;99.90;;;;;;5421877;21;20265;-73
2024/05/02 07:47:24;;;;;;;3.90;3.33;;;26.90;99.90;;;;;;5371362;26;20327;-73
2024/05/02 07:49:50;;;;;;;4.45;4.00;;;26.90;99.90;;;;;;5370592;26;20225;-73
2024/05/02 07:52:15;;;;;;;4.35;3.55;;;26.90;99.90;;;;;;5370729;26;20326;-73
2024/05/02 07:54:41;;;;;;;4.60;3.60;;;26.80;99.90;;;;;;5371355;26;20724;-74
2024/05/02 07:57:06;;;;;;;7.78;4.95;;;26.50;99.90;;;;;;5371765;26;20238;-76
2024/05/02 07:59:32;;;;;;;15.88;10.43;;;26.10;99.90;;;;;;5371566;26;20226;-75
2024/05/02 08:01:58;;;;;;;5.40;4.25;;;25.90;99.90;;;;;;5370553;26;20792;-75
2024/05/02 08:04:23;;;;;;;4.07;3.78;;;25.80;99.90;;;;;;5371921;26;20334;-74
2024/05/02 08:06:49;;;;;;;6.35;3.63;;;25.80;99.90;;;;;;5372668;26;20225;-75
2024/05/02 08:09:15;;;;;;;5.63;3.88;;;25.80;99.90;;;;;;5371676;26;20233;-75
2024/05/02 08:11:40;;;;;;;4.68;3.55;;;25.80;99.90;;;;;;5371364;26;20217;-75
2024/05/02 08:14:07;;;;;;;4.13;3.72;;;25.80;99.90;;;;;;5370852;26;20301;-75
2024/05/02 08:16:32;;;;;;;7.88;4.47;;;25.90;99.90;;;;;;5370775;26;20272;-75
2024/05/02 08:18:58;;;;;;;5.63;3.50;;;26.10;99.90;;;;;;5371825;26;20233;-75
2024/05/02 08:21:24;;;;;;;4.45;3.47;;;26.30;99.90;;;;;;5372171;26;20225;-76
2024/05/02 08:23:49;;;;;;;5.63;3.80;;;26.40;99.90;;;;;;5372642;26;20607;-76
2024/05/02 08:26:15;;;;;;;4.25;3.85;;;26.50;99.90;;;;;;5372731;26;20230;-75
2024/05/02 08:28:41;;;;;;;8.02;4.03;;;26.60;99.90;;;;;;5372566;26;20372;-76
2024/05/02 08:31:07;;;;;;;5.70;3.75;;;26.70;99.90;;;;;;5371982;26;20751;-75
2024/05/02 08:33:33;;;;;;;4.03;3.63;;;26.90;99.90;;;;;;5368130;26;20315;-75
2024/05/02 08:35:59;;;;;;;4.25;3.25;;;27.00;99.90;;;;;;5371053;26;20709;-75
2024/05/02 08:38:24;;;;;;;6.07;3.33;;;27.30;99.90;;;;;;5369099;26;20218;-75
2024/05/02 08:40:50;;;;;;;5.00;3.60;;;27.40;99.90;;;;;;5369853;26;20680;-75
2024/05/02 08:43:16;;;;;;;6.00;3.40;;;27.60;99.90;;;;;;5369737;26;20229;-75
2024/05/02 08:45:47;;;;;;;4.82;3.70;;;27.80;99.90;;;;;;5368990;26;20625;-75
2024/05/02 08:48:13;;;;;;;4.78;4.13;;;27.70;99.90;;;;;;5370181;26;20688;-76
2024/05/02 08:50:42;;;;;;;4.57;3.85;;;27.70;99.90;;;;;;5369746;26;20272;-73
2024/05/02 08:53:09;;;;;;;4.95;3.40;;;27.80;99.90;;;;;;5369959;26;20273;-73
2024/05/02 08:55:34;;;;;;;8.57;3.72;;;27.90;99.90;;;;;;5369453;26;20342;-74
2024/05/02 08:58:01;;;;;;;5.38;3.70;;;27.90;99.90;;;;;;5370352;26;20229;-73
2024/05/02 09:00:27;;;;;;;3.70;3.40;;;27.90;99.90;;;;;;5369889;26;20812;-74
2024/05/02 09:02:53;;;;;;;5.95;3.40;;;28.00;99.90;;;;;;5369656;26;20210;-74
2024/05/02 09:05:20;;;;;;;5.30;3.83;;;28.10;99.90;;;;;;5369969;26;20268;-74
2024/05/02 09:07:46;;;;;;;4.75;3.35;;;28.20;99.90;;;;;;5367689;26;20281;-74
2024/05/02 09:10:12;;;;;;;6.10;3.60;;;28.30;99.90;;;;;;5369595;26;20264;-73
2024/05/02 09:12:37;;;;;;;5.63;3.88;;;28.30;99.90;;;;;;5369486;26;20721;-74
2024/05/02 09:15:04;;;;;;;6.10;4.22;;;28.20;99.90;;;;;;5366995;26;20754;-74
2024/05/02 09:17:30;;;;;;;6.80;3.90;;;28.20;99.90;;;;;;5369450;26;20301;-74
2024/05/02 09:20:08;;;;;;;4.43;4.07;;;28.10;99.60;;;;;;5368418;26;20233;-74
2024/05/02 09:22:34;;;;;;;7.07;4.00;;;28.10;99.90;;;;;;5368932;26;20767;-74
2024/05/02 09:25:00;;;;;;;5.28;3.95;;;28.20;99.90;;;;;;5369261;26;20225;-74
2024/05/02 09:27:38;;;;;;;6.22;4.03;;;28.20;99.90;;;;;;5369721;26;20244;-74
2024/05/02 09:30:04;;;;;;;4.68;3.92;;;28.20;99.90;;;;;;5369721;26;20244;-74
2024/05/02 09:32:29;;;;;;;4.30;3.90;;;28.30;99.90;;;;;;5369694;26;20607;-74
2024/05/02 09:34:55;;;;;;;7.30;3.78;;;28.20;98.90;;;;;;5369451;26;20264;-74
2024/05/02 09:37:32;;;;;;;7.40;4.07;;;28.10;99.00;;;;;;5369386;26;20268;-74
2024/05/02 09:40:03;;;;;;;6.88;3.83;;;28.00;99.70;;;;;;5369533;26;20255;-74
2024/05/02 09:42:31;;;;;;;7.07;3.97;;;28.00;99.90;;;;;;5369288;26;20768;-74
2024/05/02 09:45:00;;;;;;;4.47;3.97;;;28.10;99.90;;;;;;5368979;26;20844;-74
2024/05/02 09:47:49;;;;;;;5.55;3.78;;;28.10;98.70;;;;;;5369440;26;20317;-73
2024/05/02 09:50:22;;;;;;;4.57;3.78;;;28.20;99.90;;;;;;5368270;26;20321;-74
2024/05/02 09:52:48;;;;;;;4.65;4.10;;;28.30;99.90;;;;;;5368504;26;20306;-73
2024/05/02 09:55:14;;;;;;;7.57;3.83;;;28.40;99.90;;;;;;5369445;26;20712;-74
2024/05/02 09:57:41;;;;;;;4.18;3.78;;;28.50;99.90;;;;;;5367046;26;20244;-73
2024/05/02 10:00:11;;;;;;;5.65;4.63;;;28.60;98.90;;;;;;5369159;26;20214;-73
2024/05/02 10:02:38;;;;;;;4.22;3.72;;;28.70;99.90;;;;;;5368154;26;20217;-73
2024/05/02 10:05:06;;;;;;;4.43;3.90;;;29.00;99.90;;;;;;5366964;26;20765;-73
2024/05/02 10:07:39;;;;;;;9.55;4.35;;;29.20;99.90;;;;;;5368647;26;20266;-73
2024/05/02 10:10:11;;;;;;;7.20;4.38;;;29.40;99.70;;;;;;5368853;26;20209;-73
2024/05/02 10:12:49;;;;;;;4.97;4.05;;;29.60;97.20;;;;;;5368290;26;20221;-74
2024/05/02 10:15:16;;;;;;;4.25;3.60;;;29.80;98.00;;;;;;5368965;26;20225;-72
2024/05/02 10:17:45;;;;;;;4.95;4.45;;;29.90;99.50;;;;;;5368690;26;20589;-73
2024/05/02 10:20:12;;;;;;;5.15;4.03;;;30.00;96.50;;;;;;5368682;26;20225;-73
2024/05/02 10:22:38;;;;;;;4.43;4.05;;;30.10;97.20;;;;;;5368443;26;20210;-73
2024/05/02 10:25:04;;;;;;;5.25;4.00;;;30.00;95.20;;;;;;5368284;26;20256;-73
2024/05/02 10:27:34;;;;;;;6.05;4.63;;;30.00;95.70;;;;;;5366806;26;20205;-73
2024/05/02 10:30:01;;;;;;;4.03;3.53;;;30.20;98.60;;;;;;5367968;26;20409;-73
2024/05/02 10:32:28;;;;;;;7.50;4.13;;;30.50;96.50;;;;;;5366752;26;20210;-73
2024/05/02 10:34:54;;;;;;;6.85;4.45;;;30.30;94.40;;;;;;5367861;26;20574;-74
2024/05/02 10:37:20;;;;;;;9.48;4.70;;;30.00;93.50;;;;;;5368489;26;20225;-72
2024/05/02 10:39:46;;;;;;;5.32;3.90;;;29.70;93.30;;;;;;5367867;26;20264;-73
2024/05/02 10:42:13;;;;;;;4.22;3.92;;;29.50;95.10;;;;;;5368138;26;20323;-73
2024/05/02 10:44:40;;;;;;;7.93;4.03;;;29.40;95.80;;;;;;5365818;26;20298;-73
2024/05/02 10:47:07;;;;;;;5.82;3.67;;;29.60;96.00;;;;;;5368249;26;20734;-73
2024/05/02 10:49:36;;;;;;;5.90;3.67;;;30.00;94.20;;;;;;5333375;26;20674;-73
2024/05/02 10:52:05;;;;;;;6.88;3.67;;;30.40;93.70;;;;;;5333264;26;20256;-74
2024/05/02 10:54:34;;;;;;;5.75;4.07;;;30.90;91.70;;;;;;5333142;26;20544;-73
2024/05/02 10:57:01;;;;;;;6.78;3.40;;;31.10;92.60;;;;;;5356330;26;20604;-73
2024/05/02 10:59:27;;;;;;;5.28;3.85;;;31.70;94.40;;;;;;5368358;26;20252;-72
2024/05/02 11:01:53;;;;;;;6.07;3.70;;;32.10;89.50;;;;;;5369960;26;20712;-73
2024/05/02 11:04:20;;;;;;;5.07;3.47;;;32.20;90.70;;;;;;5372036;26;20256;-72
2024/05/02 11:06:47;;;;;;;5.35;3.40;;;32.40;90.60;;;;;;5371426;26;20326;-73
2024/05/02 11:09:14;;;;;;;3.95;3.53;;;32.60;90.70;;;;;;5371783;26;20225;-73
2024/05/02 11:11:51;;;;;;;6.05;3.47;;;32.50;91.40;;;;;;5371021;26;20214;-73
2024/05/02 11:14:16;;;;;;;4.88;3.50;;;32.70;93.30;;;;;;5371171;26;20222;-73
2024/05/02 11:16:42;;;;;;;4.85;3.50;;;32.80;89.10;;;;;;5371278;26;20610;-73
2024/05/02 11:19:10;;;;;;;5.20;3.42;;;32.80;88.90;;;;;;5371587;26;20264;-73
2024/05/02 11:21:35;;;;;;;6.88;4.30;;;32.90;88.30;;;;;;5370906;26;20709;-73
2024/05/02 11:24:04;;;;;;;7.30;3.70;;;33.10;86.10;;;;;;5370935;26;20324;-73
2024/05/02 11:26:30;;;;;;;3.85;3.20;;;33.00;82.70;;;;;;5371010;26;20221;-73
2024/05/02 11:28:56;;;;;;;3.45;3.13;;;32.90;87.00;;;;;;5371694;26;20225;-73
2024/05/02 11:31:22;;;;;;;4.28;3.10;;;33.00;89.10;;;;;;5371986;26;20781;-73
2024/05/02 11:33:51;;;;;;;5.00;3.45;;;32.90;82.90;;;;;;5371463;26;20213;-73
2024/05/02 11:36:17;;;;;;;7.65;3.40;;;33.10;85.60;;;;;;5371766;26;20225;-74
2024/05/02 11:38:42;;;;;;;6.93;3.60;;;33.20;85.70;;;;;;5371845;26;20598;-73
2024/05/02 11:41:08;;;;;;;4.07;3.67;;;33.20;84.20;;;;;;5372635;26;20210;-74
2024/05/02 11:43:35;;;;;;;5.95;4.05;;;33.30;80.10;;;;;;5371365;26;20218;-73
2024/05/02 11:46:02;;;;;;;4.35;3.78;;;33.20;82.40;;;;;;5371962;26;20237;-74
2024/05/02 11:48:27;;;;;;;7.63;4.10;;;33.20;83.20;;;;;;5367130;26;20234;-73
2024/05/02 11:50:53;;;;;;;6.40;3.97;;;32.80;78.50;;;;;;5371102;26;20264;-74
2024/05/02 11:53:25;;;;;;;6.18;4.00;;;32.70;82.00;;;;;;5370985;26;20251;-73
2024/05/02 11:55:51;;;;;;;3.97;3.67;;;32.70;84.30;;;;;;5370903;26;20327;-73
2024/05/02 11:58:16;;;;;;;4.18;3.78;;;32.70;83.30;;;;;;5370229;26;20222;-72
2024/05/02 12:00:42;;;;;;;4.18;3.80;;;32.50;75.30;;;;;;5370827;26;20575;-73
2024/05/02 12:03:08;;;;;;;6.35;3.75;;;32.20;82.80;;;;;;5370761;26;20221;-73
2024/05/02 12:05:35;;;;;;;6.47;4.00;;;32.10;73.90;;;;;;5370842;26;20269;-73
2024/05/02 12:08:01;;;;;;;5.10;4.20;;;31.90;76.00;;;;;;5370499;26;20260;-73
2024/05/02 12:10:27;;;;;;;6.05;4.00;;;31.80;75.50;;;;;;5369880;26;20221;-73
2024/05/02 12:12:52;;;;;;;4.10;3.60;;;31.80;79.20;;;;;;5369699;26;20237;-73
2024/05/02 12:15:21;;;;;;;4.85;4.03;;;31.80;77.00;;;;;;5370620;26;20229;-73
2024/05/02 12:17:46;;;;;;;6.47;4.35;;;31.80;85.10;;;;;;5370351;26;20322;-73
2024/05/02 12:20:12;;;;;;;11.10;3.85;;;32.00;74.50;;;;;;5370422;26;20760;-72
2024/05/02 12:22:37;;;;;;;6.30;3.33;;;32.00;81.40;;;;;;5370203;26;20260;-73
2024/05/02 12:25:03;;;;;;;4.40;4.00;;;32.20;81.70;;;;;;5370563;26;20226;-73
2024/05/02 12:27:29;;;;;;;4.80;3.70;;;32.50;80.90;;;;;;5370487;26;20259;-73
2024/05/02 12:29:55;;;;;;;6.65;3.75;;;32.80;78.10;;;;;;5370042;26;20625;-73
2024/05/02 12:32:20;;;;;;;4.07;3.63;;;32.90;79.60;;;;;;5370764;26;20260;-72